createdAt,value
2024-03-24T00:00:01.563Z,1009.25
2024-03-24T00:16:02.118Z,1009.08
2024-03-24T00:31:02.088Z,1008.91
2024-03-24T00:46:03.565Z,1008.91
2024-03-24T01:00:03.760Z,1008.61
2024-03-24T01:16:04.744Z,1009.08
2024-03-24T01:31:03.924Z,1008.61
2024-03-24T01:46:05.881Z,1008.54
2024-03-24T02:00:01.283Z,1008.4
2024-03-24T02:16:01.800Z,1008.4
2024-03-24T02:31:07.814Z,1008.47
2024-03-24T02:46:03.507Z,1008.5
2024-03-24T03:00:04.220Z,1008.37
2024-03-24T03:16:04.910Z,1008.4
2024-03-24T03:31:10.402Z,1008.37
2024-03-24T03:46:01.260Z,1008.37
2024-03-24T04:00:01.867Z,1008.33
2024-03-24T04:16:02.733Z,1008.71
2024-03-24T04:31:13.012Z,1008.61
2024-03-24T04:46:04.146Z,1008.74
2024-03-24T05:00:04.813Z,1008.84
2024-03-24T05:16:05.396Z,1008.88
2024-03-24T05:31:15.199Z,1009.18
2024-03-24T05:46:01.481Z,1009.21
2024-03-24T06:00:01.984Z,1009.28
2024-03-24T06:16:02.443Z,1009.35
2024-03-24T06:31:18.032Z,1009.42
2024-03-24T06:46:03.732Z,1009.45
2024-03-24T07:00:04.551Z,1009.21
2024-03-24T07:16:05.613Z,1009.45
2024-03-24T07:31:01.285Z,1009.52
2024-03-24T07:46:01.953Z,1009.38
2024-03-24T08:00:02.643Z,1009.49
2024-03-24T08:16:03.387Z,1009.15
2024-03-24T08:31:04.066Z,1008.98
2024-03-24T08:46:04.815Z,1009.11
2024-03-24T09:00:05.456Z,1009.25
2024-03-24T09:16:01.364Z,1009.25
2024-03-24T09:31:02.135Z,1009.21
2024-03-24T09:46:02.852Z,1009.18
2024-03-24T10:00:03.411Z,1009.15
2024-03-24T10:16:04.325Z,1008.91
2024-03-24T10:31:05.271Z,1008.67
2024-03-24T10:46:01.341Z,1008.71
2024-03-24T11:00:01.790Z,1008.4
2024-03-24T11:16:02.149Z,1008.33
2024-03-24T11:31:03.109Z,1008.13
2024-03-24T11:46:03.565Z,1007.93
2024-03-24T12:00:04.479Z,1007.69
2024-03-24T12:16:05.415Z,1007.49
2024-03-24T12:31:05.855Z,1007.25
2024-03-24T12:46:03.065Z,1007.12
2024-03-24T13:00:01.713Z,1006.98
2024-03-24T13:16:02.838Z,1007.12
2024-03-24T13:31:03.725Z,1007.18
2024-03-24T13:46:04.197Z,1007.12
2024-03-24T14:00:04.949Z,1007.15
2024-03-24T14:16:01.402Z,1007.25
2024-03-24T14:31:01.697Z,1007.35
2024-03-24T14:46:02.672Z,1007.39
2024-03-24T15:00:02.960Z,1007.42
2024-03-24T15:16:03.903Z,1007.25
2024-03-24T15:31:04.363Z,1007.18
2024-03-24T15:46:04.993Z,1007.12
2024-03-24T16:00:05.448Z,1007.01
2024-03-24T16:16:01.296Z,1007.01
2024-03-24T16:31:02.022Z,1006.95
2024-03-24T16:46:02.570Z,1006.84
2024-03-24T17:00:03.015Z,1006.84
2024-03-24T17:16:04.021Z,1006.95
2024-03-24T17:31:05.454Z,1006.95
2024-03-24T17:46:05.371Z,1007.22
2024-03-24T18:00:05.689Z,1007.42
2024-03-24T18:16:01.784Z,1007.66
2024-03-24T18:31:02.622Z,1007.86
2024-03-24T18:46:03.288Z,1007.89
2024-03-24T19:00:03.168Z,1007.86
2024-03-24T19:16:04.717Z,1007.86
2024-03-24T19:31:04.945Z,1008.06
2024-03-24T19:46:05.802Z,1008.27
2024-03-24T20:00:01.604Z,1008.3
2024-03-24T20:16:02.256Z,1008.37
2024-03-24T20:31:03.279Z,1008.37
2024-03-24T20:46:03.752Z,1008.4
2024-03-24T21:00:06.825Z,1008.27
2024-03-24T21:16:05.190Z,1008.3
2024-03-24T21:31:05.968Z,1008.5
2024-03-24T21:46:01.684Z,1008.37
2024-03-24T22:00:02.614Z,1008.37
2024-03-24T22:16:02.970Z,1008.61
2024-03-24T22:31:02.802Z,1008.54
2024-03-24T22:46:04.200Z,1008.57
2024-03-24T23:00:04.607Z,1008.61
2024-03-24T23:16:04.983Z,1008.5
2024-03-24T23:31:01.446Z,1008.44
2024-03-24T23:46:04.283Z,1008.5
